createdAt,value
2023-01-25T00:00:00.899Z,102355.63
2023-01-25T00:02:30.693Z,102356.56
2023-01-25T00:05:01.148Z,102348.53
2023-01-25T00:07:28.168Z,102354.59
2023-01-25T00:09:55.558Z,102346.56
2023-01-25T00:12:22.654Z,102352.72
2023-01-25T00:14:51.274Z,102359.41
2023-01-25T00:17:18.215Z,102354.97
2023-01-25T00:19:45.640Z,102358.59
2023-01-25T00:22:12.453Z,102359.78
2023-01-25T00:24:39.709Z,102351.91
2023-01-25T00:27:07.930Z,102353.47
2023-01-25T00:29:37.234Z,102355.91
2023-01-25T00:32:42.755Z,102349.66
2023-01-25T00:35:12.427Z,102353.97
2023-01-25T00:37:42.209Z,102354.88
2023-01-25T00:40:11.817Z,102352.16
2023-01-25T00:42:38.773Z,102354.94
2023-01-25T00:45:07.462Z,102349.53
2023-01-25T00:47:35.929Z,102349.63
2023-01-25T00:50:03.411Z,102344.44
2023-01-25T00:52:30.305Z,102344.41
2023-01-25T00:54:57.526Z,102351.56
2023-01-25T00:57:24.473Z,102348.88
2023-01-25T00:59:51.721Z,102348.78
2023-01-25T01:02:18.762Z,102347.94
2023-01-25T01:04:48.651Z,102338.69
2023-01-25T01:07:15.822Z,102343.03
2023-01-25T01:09:43.101Z,102342.28
2023-01-25T01:12:10.322Z,102346.91
2023-01-25T01:14:37.973Z,102341.44
2023-01-25T01:17:05.024Z,102318.91
2023-01-25T01:19:32.362Z,102340.06
2023-01-25T01:22:00.810Z,102334.72
2023-01-25T01:24:28.306Z,102330.31
2023-01-25T01:26:55.331Z,102338.88
2023-01-25T01:29:22.698Z,102332.69
2023-01-25T01:31:51.328Z,102325.97
2023-01-25T01:34:19.024Z,102325.22
2023-01-25T01:36:46.101Z,102326.00
2023-01-25T01:39:14.778Z,102330.59
2023-01-25T01:41:41.704Z,102329.53
2023-01-25T01:44:16.580Z,102332.16
2023-01-25T01:46:52.846Z,102319.91
2023-01-25T01:49:24.136Z,102338.22
2023-01-25T01:51:55.859Z,102333.81
2023-01-25T01:54:28.989Z,102332.75
2023-01-25T01:57:01.351Z,102331.81
2023-01-25T01:59:34.534Z,102339.72
2023-01-25T02:02:01.774Z,102327.28
2023-01-25T02:04:30.130Z,102328.06
2023-01-25T02:07:03.142Z,102321.97
2023-01-25T02:09:33.962Z,102321.00
2023-01-25T02:12:01.305Z,102322.81
2023-01-25T02:14:29.944Z,102318.56
2023-01-25T02:16:57.608Z,102321.94
2023-01-25T02:19:36.857Z,102314.91
2023-01-25T02:22:10.164Z,102327.38
2023-01-25T02:24:46.650Z,102324.06
2023-01-25T02:27:15.245Z,102326.56
2023-01-25T02:29:43.121Z,102337.91
2023-01-25T02:32:10.126Z,102330.84
2023-01-25T02:34:37.666Z,102335.19
2023-01-25T02:37:04.691Z,102333.44
2023-01-25T02:39:31.943Z,102328.22
2023-01-25T02:41:58.910Z,102322.13
2023-01-25T02:44:31.334Z,102326.56
2023-01-25T02:46:59.771Z,102327.50
2023-01-25T02:49:27.009Z,102335.53
2023-01-25T02:51:57.335Z,102335.56
2023-01-25T02:54:26.237Z,102322.41
2023-01-25T02:56:53.352Z,102325.78
2023-01-25T02:59:20.838Z,102315.25
2023-01-25T03:01:49.816Z,102324.75
2023-01-25T03:04:17.054Z,102314.31
2023-01-25T03:06:44.024Z,102322.94
2023-01-25T03:09:11.986Z,102317.69
2023-01-25T03:11:39.024Z,102315.00
2023-01-25T03:14:06.627Z,102320.31
2023-01-25T03:16:33.930Z,102316.03
2023-01-25T03:19:02.467Z,102309.91
2023-01-25T03:21:29.577Z,102308.25
2023-01-25T03:23:58.800Z,102313.53
2023-01-25T03:26:27.110Z,102306.50
2023-01-25T03:28:54.379Z,102311.88
2023-01-25T03:31:21.572Z,102312.97
2023-01-25T03:33:49.848Z,102308.44
2023-01-25T03:36:18.519Z,102311.09
2023-01-25T03:38:45.793Z,102305.00
2023-01-25T03:41:13.956Z,102304.16
2023-01-25T03:43:41.137Z,102302.38
2023-01-25T03:46:08.312Z,102299.69
2023-01-25T03:48:35.523Z,102294.34
2023-01-25T03:51:02.563Z,102292.66
2023-01-25T03:53:32.128Z,102289.03
2023-01-25T03:56:01.303Z,102280.16
2023-01-25T03:58:29.756Z,102273.16
2023-01-25T04:00:58.727Z,102278.25
2023-01-25T04:03:26.703Z,102274.44
2023-01-25T04:05:56.107Z,102280.50
2023-01-25T04:08:24.697Z,102279.47
2023-01-25T04:10:54.794Z,102282.78
2023-01-25T04:13:24.048Z,102283.72
2023-01-25T04:15:51.679Z,102279.00
2023-01-25T04:18:19.454Z,102281.13
2023-01-25T04:20:46.419Z,102279.38
2023-01-25T04:23:13.685Z,102285.25
2023-01-25T04:25:40.649Z,102281.78
2023-01-25T04:28:09.206Z,102283.44
2023-01-25T04:30:36.190Z,102280.56
2023-01-25T04:33:04.653Z,102281.31
2023-01-25T04:35:31.925Z,102296.78
2023-01-25T04:38:00.126Z,102295.63
2023-01-25T04:40:27.452Z,102292.00
2023-01-25T04:42:54.743Z,102285.97
2023-01-25T04:45:23.073Z,102297.28
2023-01-25T04:47:56.645Z,102286.25
2023-01-25T04:50:23.694Z,102303.44
2023-01-25T04:52:51.293Z,102304.72
2023-01-25T04:55:18.389Z,102303.13
2023-01-25T04:57:45.956Z,102303.91
2023-01-25T05:00:14.422Z,102304.38
2023-01-25T05:02:43.005Z,102300.47
2023-01-25T05:05:10.463Z,102297.59
2023-01-25T05:07:38.156Z,102273.41
2023-01-25T05:10:06.640Z,102306.91
2023-01-25T05:12:33.952Z,102313.81
2023-01-25T05:15:00.886Z,102306.00
2023-01-25T05:17:28.323Z,102304.34
2023-01-25T05:19:56.630Z,102308.69
2023-01-25T05:22:23.991Z,102300.09
2023-01-25T05:24:51.149Z,102311.41
2023-01-25T05:27:20.379Z,102302.78
2023-01-25T05:29:47.755Z,102307.13
2023-01-25T05:32:16.602Z,102300.06
2023-01-25T05:34:44.706Z,102298.41
2023-01-25T05:37:14.979Z,102301.88
2023-01-25T05:39:42.003Z,102313.09
2023-01-25T05:42:12.062Z,102306.81
2023-01-25T05:44:39.120Z,102310.22
2023-01-25T05:47:06.583Z,102281.25
2023-01-25T05:49:33.465Z,102301.69
2023-01-25T05:52:00.815Z,102308.34
2023-01-25T05:54:29.479Z,102309.81
2023-01-25T05:56:59.705Z,102314.66
2023-01-25T05:59:26.626Z,102317.97
2023-01-25T06:01:53.983Z,102325.88
2023-01-25T06:04:20.891Z,102320.44
2023-01-25T06:06:48.151Z,102316.88
2023-01-25T06:09:15.532Z,102316.88
2023-01-25T06:11:47.604Z,102323.00
2023-01-25T06:14:15.234Z,102327.00
2023-01-25T06:16:42.476Z,102323.19
2023-01-25T06:19:09.588Z,102323.44
2023-01-25T06:21:38.571Z,102331.00
2023-01-25T06:24:06.413Z,102324.97
2023-01-25T06:26:34.479Z,102324.81
2023-01-25T06:29:05.090Z,102325.53
2023-01-25T06:31:32.436Z,102329.75
2023-01-25T06:34:01.101Z,102333.91
2023-01-25T06:36:28.474Z,102328.81
2023-01-25T06:38:55.411Z,102322.81
2023-01-25T06:41:23.185Z,102322.09
2023-01-25T06:43:51.374Z,102322.81
2023-01-25T06:46:20.296Z,102326.16
2023-01-25T06:48:48.506Z,102322.47
2023-01-25T06:51:17.257Z,102321.66
2023-01-25T06:53:45.884Z,102324.78
2023-01-25T06:56:14.828Z,102322.53
2023-01-25T06:58:41.823Z,102321.41
2023-01-25T07:01:13.446Z,102317.19
2023-01-25T07:03:42.206Z,102305.09
2023-01-25T07:06:11.117Z,102311.84
2023-01-25T07:08:39.731Z,102316.19
2023-01-25T07:11:12.196Z,102310.00
2023-01-25T07:13:40.201Z,102312.34
2023-01-25T07:16:10.948Z,102299.97
2023-01-25T07:18:38.118Z,102305.69
2023-01-25T07:21:08.957Z,102306.53
2023-01-25T07:23:37.967Z,102298.06
2023-01-25T07:26:06.147Z,102306.28
2023-01-25T07:28:33.774Z,102303.06
2023-01-25T07:31:05.900Z,102308.41
2023-01-25T07:33:33.035Z,102304.84
2023-01-25T07:36:00.622Z,102316.41
2023-01-25T07:38:30.428Z,102307.66
2023-01-25T07:40:57.793Z,102314.88
2023-01-25T07:43:25.309Z,102305.63
2023-01-25T07:45:52.538Z,102307.34
2023-01-25T07:48:20.938Z,102310.81
2023-01-25T07:50:49.702Z,102302.66
2023-01-25T07:53:19.408Z,102301.59
2023-01-25T07:55:48.768Z,102309.81
2023-01-25T07:58:17.849Z,102302.91
2023-01-25T08:00:45.485Z,102306.56
2023-01-25T08:03:14.526Z,102305.91
2023-01-25T08:05:44.558Z,102303.19
2023-01-25T08:08:11.582Z,102310.94
2023-01-25T08:10:39.000Z,102304.19
2023-01-25T08:13:07.691Z,102303.97
2023-01-25T08:15:35.132Z,102304.16
2023-01-25T08:18:02.121Z,102314.19
2023-01-25T08:20:29.397Z,102305.47
2023-01-25T08:22:56.569Z,102313.22
2023-01-25T08:25:23.862Z,102308.50
2023-01-25T08:27:52.224Z,102307.69
2023-01-25T08:30:21.073Z,102306.81
2023-01-25T08:32:48.044Z,102310.09
2023-01-25T08:35:15.508Z,102304.66
2023-01-25T08:37:42.419Z,102303.56
2023-01-25T08:40:13.810Z,102303.28
2023-01-25T08:42:43.132Z,102312.06
2023-01-25T08:45:11.288Z,102306.66
2023-01-25T08:47:39.897Z,102305.16
2023-01-25T08:50:08.522Z,102304.25
2023-01-25T08:52:35.750Z,102307.13
2023-01-25T08:55:03.159Z,102309.69
2023-01-25T08:57:31.942Z,102313.06
2023-01-25T08:59:59.863Z,102303.63
2023-01-25T09:02:26.746Z,102309.16
2023-01-25T09:04:55.332Z,102310.09
2023-01-25T09:07:22.329Z,102302.00
2023-01-25T09:09:49.547Z,102292.81
2023-01-25T09:12:16.520Z,102301.13
2023-01-25T09:14:43.890Z,102296.78
2023-01-25T09:17:10.791Z,102301.31
2023-01-25T09:19:38.077Z,102292.69
2023-01-25T09:22:06.460Z,102292.06
2023-01-25T09:24:36.997Z,102295.06
2023-01-25T09:27:04.192Z,102292.47
2023-01-25T09:29:31.536Z,102281.19
2023-01-25T09:31:58.801Z,102288.41
2023-01-25T09:34:26.471Z,102285.81
2023-01-25T09:36:53.499Z,102280.03
2023-01-25T09:39:22.359Z,102280.31
2023-01-25T09:42:21.577Z,102269.34
2023-01-25T09:45:04.801Z,102260.88
2023-01-25T09:47:40.475Z,102259.97
2023-01-25T09:50:33.233Z,102259.16
2023-01-25T09:53:22.354Z,102257.25
2023-01-25T09:55:55.575Z,102251.84
2023-01-25T09:58:28.337Z,102256.56
2023-01-25T10:01:09.669Z,102248.56
2023-01-25T10:03:48.336Z,102243.31
2023-01-25T10:06:17.665Z,102221.56
2023-01-25T10:08:52.920Z,102237.47
2023-01-25T10:11:25.977Z,102235.44
2023-01-25T10:13:56.337Z,102230.28
2023-01-25T10:16:29.996Z,102228.53
2023-01-25T10:19:19.907Z,102222.38
2023-01-25T10:21:53.762Z,102214.88
2023-01-25T10:24:43.739Z,102212.38
2023-01-25T10:27:29.389Z,102208.13
2023-01-25T10:30:00.136Z,102197.66
2023-01-25T10:32:31.900Z,102199.00
2023-01-25T10:35:10.518Z,102187.13
2023-01-25T10:37:39.061Z,102189.88
2023-01-25T10:40:17.747Z,102174.38
2023-01-25T10:42:51.566Z,102177.75
2023-01-25T10:45:20.941Z,102159.34
2023-01-25T10:47:52.705Z,102162.69
2023-01-25T10:50:47.638Z,102156.91
2023-01-25T10:53:27.101Z,102145.47
2023-01-25T10:56:05.737Z,102143.75
2023-01-25T10:58:36.593Z,102139.47
2023-01-25T11:01:07.119Z,102137.00
2023-01-25T11:03:37.228Z,102126.75
2023-01-25T11:06:04.969Z,102129.34
2023-01-25T11:08:37.597Z,102115.59
2023-01-25T11:11:25.553Z,102120.19
2023-01-25T11:13:55.368Z,102114.22
2023-01-25T11:16:41.648Z,102105.06
2023-01-25T11:19:29.261Z,102105.91
2023-01-25T11:21:58.622Z,102100.50
2023-01-25T11:24:28.102Z,102101.19
2023-01-25T11:27:14.586Z,102094.97
2023-01-25T11:29:43.188Z,102099.44
2023-01-25T11:32:20.412Z,102097.00
2023-01-25T11:34:48.923Z,102092.25
2023-01-25T11:37:29.228Z,102087.28
2023-01-25T11:40:07.939Z,102084.97
2023-01-25T11:42:43.594Z,102079.09
2023-01-25T11:45:45.719Z,102076.78
2023-01-25T11:48:26.909Z,102069.38
2023-01-25T11:51:02.464Z,102069.03
2023-01-25T11:54:09.494Z,102060.78
2023-01-25T11:56:48.615Z,102053.22
2023-01-25T11:59:36.391Z,102051.09
2023-01-25T12:02:24.849Z,102052.59
2023-01-25T12:05:21.911Z,102055.56
2023-01-25T12:07:59.073Z,102055.56
2023-01-25T12:10:34.304Z,102053.38
2023-01-25T12:13:09.589Z,102053.53
2023-01-25T12:15:55.837Z,102028.44
2023-01-25T12:18:45.329Z,102053.03
2023-01-25T12:21:31.191Z,102046.06
2023-01-25T12:24:15.312Z,102037.56
2023-01-25T12:26:54.484Z,102044.09
2023-01-25T12:29:26.587Z,102045.31
2023-01-25T12:31:58.591Z,102043.06
2023-01-25T12:34:33.814Z,102033.34
2023-01-25T12:37:08.278Z,102034.44
2023-01-25T12:39:42.560Z,102038.72
2023-01-25T12:42:17.563Z,102031.63
2023-01-25T12:44:49.441Z,102021.69
2023-01-25T12:47:22.391Z,102034.41
2023-01-25T12:49:55.820Z,102026.81
2023-01-25T12:52:31.882Z,102022.28
2023-01-25T12:55:01.901Z,102025.41
2023-01-25T12:57:36.515Z,102024.19
2023-01-25T13:00:17.096Z,102004.47
2023-01-25T13:03:04.749Z,102026.63
2023-01-25T13:05:39.451Z,102016.81
2023-01-25T13:08:30.318Z,102022.09
2023-01-25T13:11:10.259Z,102021.41
2023-01-25T13:13:37.224Z,102032.66
2023-01-25T13:16:23.916Z,102020.09
2023-01-25T13:18:50.943Z,102018.03
2023-01-25T13:21:40.809Z,102014.19
2023-01-25T13:24:20.588Z,102019.97
2023-01-25T13:27:03.675Z,102007.06
2023-01-25T13:29:59.007Z,102003.00
2023-01-25T13:33:03.653Z,102005.91
2023-01-25T13:35:42.059Z,101996.31
2023-01-25T13:38:35.866Z,102009.63
2023-01-25T13:41:17.864Z,102005.56
2023-01-25T13:44:08.141Z,102001.22
2023-01-25T13:46:35.745Z,101997.31
2023-01-25T13:49:08.138Z,101995.06
2023-01-25T13:51:39.407Z,101993.84
2023-01-25T13:54:16.022Z,101990.47
2023-01-25T13:56:43.246Z,101988.16
2023-01-25T13:59:24.399Z,101989.53
2023-01-25T14:01:52.553Z,101982.41
2023-01-25T14:04:19.885Z,101987.63
2023-01-25T14:06:47.114Z,101976.50
2023-01-25T14:09:17.651Z,101978.22
2023-01-25T14:11:49.471Z,101976.16
2023-01-25T14:14:20.949Z,101981.97
2023-01-25T14:17:02.059Z,101973.78
2023-01-25T14:19:30.577Z,101972.72
2023-01-25T14:22:13.236Z,101962.16
2023-01-25T14:24:42.090Z,101970.88
2023-01-25T14:27:14.478Z,101966.47
2023-01-25T14:29:42.110Z,101960.81
2023-01-25T14:32:16.993Z,101968.94
2023-01-25T14:34:44.406Z,101959.63
2023-01-25T14:37:16.629Z,101954.66
2023-01-25T14:39:46.563Z,101970.03
2023-01-25T14:42:13.775Z,101959.97
2023-01-25T14:44:45.732Z,101953.44
2023-01-25T14:47:23.044Z,101949.63
2023-01-25T14:49:50.581Z,101954.13
2023-01-25T14:52:19.976Z,101951.94
2023-01-25T14:54:52.409Z,101953.00
2023-01-25T14:57:33.049Z,101947.59
2023-01-25T15:00:03.809Z,101949.09
2023-01-25T15:02:38.065Z,101953.19
2023-01-25T15:05:16.392Z,101949.72
2023-01-25T15:07:45.993Z,101953.13
2023-01-25T15:10:23.267Z,101947.56
2023-01-25T15:13:04.132Z,101951.84
2023-01-25T15:15:35.813Z,101943.06
2023-01-25T15:18:03.208Z,101952.38
2023-01-25T15:20:36.110Z,101946.56
2023-01-25T15:23:22.023Z,101950.03
2023-01-25T15:25:54.957Z,101944.97
2023-01-25T15:28:23.524Z,101949.09
2023-01-25T15:30:51.088Z,101952.56
2023-01-25T15:33:22.035Z,101945.38
2023-01-25T15:35:50.248Z,101951.78
2023-01-25T15:38:17.656Z,101947.97
2023-01-25T15:40:45.541Z,101951.31
2023-01-25T15:43:14.652Z,101956.28
2023-01-25T15:45:43.509Z,101951.78
2023-01-25T15:48:17.296Z,101953.00
2023-01-25T15:50:44.752Z,101948.72
2023-01-25T15:53:15.184Z,101954.44
2023-01-25T15:55:44.587Z,101946.53
2023-01-25T15:58:18.355Z,101954.81
2023-01-25T16:00:45.599Z,101954.47
2023-01-25T16:03:13.101Z,101959.41
2023-01-25T16:05:40.474Z,101954.78
2023-01-25T16:08:15.611Z,101948.56
2023-01-25T16:10:43.014Z,101945.88
2023-01-25T16:13:10.304Z,101945.63
2023-01-25T16:15:40.022Z,101947.28
2023-01-25T16:18:07.136Z,101949.84
2023-01-25T16:20:34.206Z,101941.13
2023-01-25T16:23:01.429Z,101948.09
2023-01-25T16:25:28.721Z,101940.19
2023-01-25T16:27:55.587Z,101946.28
2023-01-25T16:30:25.892Z,101940.84
2023-01-25T16:32:54.260Z,101939.19
2023-01-25T16:35:21.519Z,101933.78
2023-01-25T16:37:48.717Z,101932.09
2023-01-25T16:40:23.158Z,101928.59
2023-01-25T16:42:50.671Z,101931.38
2023-01-25T16:45:19.456Z,101926.13
2023-01-25T16:47:47.654Z,101922.78
2023-01-25T16:50:18.067Z,101921.03
2023-01-25T16:52:46.036Z,101918.56
2023-01-25T16:55:14.335Z,101917.63
2023-01-25T16:57:43.489Z,101913.94
2023-01-25T17:00:13.917Z,101928.94
2023-01-25T17:02:56.968Z,101926.56
2023-01-25T17:05:33.553Z,101912.19
2023-01-25T17:08:00.689Z,101917.13
2023-01-25T17:10:29.726Z,101917.53
2023-01-25T17:12:56.776Z,101919.38
2023-01-25T17:15:24.019Z,101916.59
2023-01-25T17:17:50.877Z,101915.34
2023-01-25T17:20:18.189Z,101909.81
2023-01-25T17:22:50.987Z,101913.16
2023-01-25T17:25:18.433Z,101915.31
2023-01-25T17:27:45.403Z,101913.31
2023-01-25T17:30:13.629Z,101914.63
2023-01-25T17:32:40.994Z,101916.00
2023-01-25T17:35:08.980Z,101913.16
2023-01-25T17:37:35.980Z,101902.13
2023-01-25T17:40:05.201Z,101916.44
2023-01-25T17:42:33.000Z,101899.41
2023-01-25T17:45:00.225Z,101901.03
2023-01-25T17:47:27.224Z,101909.03
2023-01-25T17:49:54.524Z,101895.31
2023-01-25T17:52:21.389Z,101890.66
2023-01-25T17:54:48.972Z,101883.00
2023-01-25T17:57:23.702Z,101877.81
2023-01-25T17:59:51.069Z,101877.13
2023-01-25T18:02:18.258Z,101876.56
2023-01-25T18:04:45.521Z,101866.75
2023-01-25T18:07:13.428Z,101871.91
2023-01-25T18:09:43.393Z,101866.63
2023-01-25T18:12:12.061Z,101867.53
2023-01-25T18:14:43.958Z,101871.31
2023-01-25T18:17:12.526Z,101866.00
2023-01-25T18:19:39.737Z,101871.00
2023-01-25T18:22:06.736Z,101865.28
2023-01-25T18:24:35.413Z,101861.38
2023-01-25T18:27:05.468Z,101855.13
2023-01-25T18:29:55.518Z,101863.97
2023-01-25T18:32:22.620Z,101862.53
2023-01-25T18:34:49.995Z,101849.00
2023-01-25T18:37:25.614Z,101854.22
2023-01-25T18:39:54.656Z,101858.25
2023-01-25T18:42:23.643Z,101856.56
2023-01-25T18:44:50.989Z,101847.13
2023-01-25T18:47:21.137Z,101849.81
2023-01-25T18:49:50.490Z,101853.69
2023-01-25T18:52:18.690Z,101848.97
2023-01-25T18:54:46.296Z,101850.28
2023-01-25T18:57:13.933Z,101836.91
2023-01-25T18:59:42.084Z,101840.75
2023-01-25T19:02:11.084Z,101831.78
2023-01-25T19:04:40.362Z,101823.63
2023-01-25T19:07:07.518Z,101832.06
2023-01-25T19:09:34.946Z,101831.47
2023-01-25T19:12:02.048Z,101823.63
2023-01-25T19:14:30.490Z,101828.56
2023-01-25T19:16:57.788Z,101814.50
2023-01-25T19:19:25.098Z,101817.56
2023-01-25T19:21:53.385Z,101825.63
2023-01-25T19:24:21.807Z,101814.69
2023-01-25T19:26:48.743Z,101806.72
2023-01-25T19:29:16.171Z,101801.22
2023-01-25T19:31:43.172Z,101807.69
2023-01-25T19:34:10.423Z,101808.03
2023-01-25T19:36:43.737Z,101809.59
2023-01-25T19:39:14.495Z,101802.22
2023-01-25T19:41:43.993Z,101796.69
2023-01-25T19:44:13.800Z,101797.28
2023-01-25T19:46:41.005Z,101795.34
2023-01-25T19:49:10.701Z,101793.53
2023-01-25T19:51:41.355Z,101794.41
2023-01-25T19:54:11.391Z,101786.44
2023-01-25T19:56:40.973Z,101786.25
2023-01-25T19:59:11.576Z,101782.56
2023-01-25T20:01:44.119Z,101785.03
2023-01-25T20:04:13.721Z,101775.88
2023-01-25T20:06:40.862Z,101752.69
2023-01-25T20:09:08.561Z,101769.22
2023-01-25T20:11:35.838Z,101770.34
2023-01-25T20:14:06.185Z,101766.50
2023-01-25T20:16:34.859Z,101763.34
2023-01-25T20:19:02.944Z,101761.75
2023-01-25T20:21:31.395Z,101758.78
2023-01-25T20:24:02.623Z,101766.81
2023-01-25T20:26:32.626Z,101757.28
2023-01-25T20:29:00.605Z,101757.78
2023-01-25T20:31:30.932Z,101755.75
2023-01-25T20:33:59.598Z,101745.94
2023-01-25T20:36:30.321Z,101749.47
2023-01-25T20:38:57.872Z,101756.31
2023-01-25T20:41:25.045Z,101749.88
2023-01-25T20:43:54.783Z,101722.38
2023-01-25T20:46:22.066Z,101741.56
2023-01-25T20:48:52.088Z,101750.47
2023-01-25T20:51:21.470Z,101748.06
2023-01-25T20:53:50.246Z,101724.78
2023-01-25T20:56:18.638Z,101735.84
2023-01-25T20:58:50.381Z,101727.25
2023-01-25T21:01:20.106Z,101725.78
2023-01-25T21:03:48.347Z,101725.78
2023-01-25T21:06:17.624Z,101726.00
2023-01-25T21:08:44.870Z,101728.75
2023-01-25T21:11:13.376Z,101736.88
2023-01-25T21:13:41.209Z,101726.72
2023-01-25T21:16:12.366Z,101724.25
2023-01-25T21:18:41.139Z,101719.47
2023-01-25T21:21:10.082Z,101726.34
2023-01-25T21:23:39.746Z,101716.25
2023-01-25T21:26:08.070Z,101725.66
2023-01-25T21:28:35.310Z,101722.03
2023-01-25T21:31:07.547Z,101730.56
2023-01-25T21:33:35.391Z,101727.53
2023-01-25T21:36:02.522Z,101730.75
2023-01-25T21:38:29.843Z,101725.66
2023-01-25T21:41:02.071Z,101722.78
2023-01-25T21:43:29.615Z,101717.28
2023-01-25T21:46:13.481Z,101716.25
2023-01-25T21:48:59.234Z,101719.69
2023-01-25T21:51:40.125Z,101726.00
2023-01-25T21:54:07.567Z,101725.13
2023-01-25T21:56:35.919Z,101726.78
2023-01-25T21:59:03.332Z,101714.72
2023-01-25T22:01:30.324Z,101720.94
2023-01-25T22:03:57.692Z,101721.16
2023-01-25T22:06:24.659Z,101720.44
2023-01-25T22:08:52.443Z,101717.81
2023-01-25T22:11:19.520Z,101716.88
2023-01-25T22:13:48.087Z,101714.03
2023-01-25T22:16:15.199Z,101715.06
2023-01-25T22:18:43.503Z,101711.72
2023-01-25T22:21:15.528Z,101705.03
2023-01-25T22:23:42.873Z,101700.38
2023-01-25T22:26:11.265Z,101702.25
2023-01-25T22:28:45.953Z,101700.56
2023-01-25T22:31:15.230Z,101696.75
2023-01-25T22:33:45.520Z,101687.00
2023-01-25T22:36:14.291Z,101686.22
2023-01-25T22:38:41.822Z,101679.50
2023-01-25T22:41:09.962Z,101680.91
2023-01-25T22:43:37.870Z,101673.53
2023-01-25T22:46:06.212Z,101670.91
2023-01-25T22:48:35.220Z,101670.00
2023-01-25T22:51:02.965Z,101667.66
2023-01-25T22:53:30.874Z,101662.59
2023-01-25T22:56:02.823Z,101656.72
2023-01-25T22:58:30.385Z,101650.47
2023-01-25T23:00:57.528Z,101641.94
2023-01-25T23:03:24.982Z,101646.56
2023-01-25T23:06:00.265Z,101641.13
2023-01-25T23:08:30.117Z,101626.22
2023-01-25T23:11:00.940Z,101634.47
2023-01-25T23:13:28.748Z,101632.59
2023-01-25T23:15:56.319Z,101626.41
2023-01-25T23:18:42.171Z,101621.31
2023-01-25T23:21:10.463Z,101626.28
2023-01-25T23:23:37.657Z,101620.59
2023-01-25T23:26:04.849Z,101616.44
2023-01-25T23:28:32.361Z,101616.16
2023-01-25T23:31:21.437Z,101612.66
2023-01-25T23:33:50.677Z,101617.16
2023-01-25T23:36:20.382Z,101622.31
2023-01-25T23:38:48.827Z,101615.94
2023-01-25T23:41:16.871Z,101613.44
2023-01-25T23:43:44.279Z,101608.19
2023-01-25T23:46:14.256Z,101606.97
2023-01-25T23:48:42.062Z,101603.91
2023-01-25T23:51:11.021Z,101588.06
2023-01-25T23:53:39.821Z,101592.38
2023-01-25T23:56:08.736Z,101591.69
2023-01-25T23:58:36.904Z,101591.84
